Time;durP1;ratioP1;P1;durP2;ratioP2;P2;SDS_P1;SDS_P2;PMS_P1;PMS_P2;Temp;Humidity;BMP_temperature;BMP_pressure;BME280_temperature;BME280_humidity;BME280_pressure;Samples;Min_cycle;Max_cycle;Signal;HPM_P1;HPM_P2
2023/11/21 00:01:24;;;;;;;14.30;10.30;;;;;;;-1.81;100.00;99898.36;88391;275;137229;-72
2023/11/21 00:03:28;;;;;;;18.70;12.80;;;;;;;-1.82;100.00;99894.80;88366;276;24029;-75
2023/11/21 00:05:30;;;;;;;17.00;11.90;;;;;;;-1.86;100.00;99894.79;88515;278;137764;-77
2023/11/21 00:07:32;;;;;;;15.10;11.10;;;;;;;-1.93;100.00;99899.10;88702;282;22537;-75
2023/11/21 00:09:36;;;;;;;19.70;13.40;;;;;;;-2.01;100.00;99897.52;88486;282;136914;-74
2023/11/21 00:11:39;;;;;;;16.40;11.90;;;;;;;-2.09;100.00;99896.39;88492;282;26419;-74
2023/11/21 00:13:41;;;;;;;21.70;13.30;;;;;;;-2.10;100.00;99898.22;88351;275;138627;-73
2023/11/21 00:15:43;;;;;;;16.30;11.00;;;;;;;-2.07;100.00;99901.27;88473;274;22533;-73
2023/11/21 00:17:46;;;;;;;17.60;12.20;;;;;;;-2.02;100.00;99898.77;88373;282;137001;-74
2023/11/21 00:19:48;;;;;;;18.30;13.10;;;;;;;-1.98;100.00;99897.80;88604;282;24167;-70
2023/11/21 00:21:50;;;;;;;21.20;13.30;;;;;;;-1.97;100.00;99899.83;88266;285;136216;-73
2023/11/21 00:23:52;;;;;;;20.60;15.20;;;;;;;-2.00;100.00;99901.74;88483;282;22478;-72
2023/11/21 00:25:54;;;;;;;19.10;13.50;;;;;;;-2.03;100.00;99899.73;88357;275;136142;-73
2023/11/21 00:27:56;;;;;;;19.50;13.60;;;;;;;-2.06;100.00;99896.69;88512;279;25285;-74
2023/11/21 00:29:58;;;;;;;24.50;14.50;;;;;;;-2.07;100.00;99898.27;88448;279;137260;-71
2023/11/21 00:32:00;;;;;;;19.90;14.40;;;;;;;-2.09;100.00;99897.41;88547;275;23938;-72
2023/11/21 00:34:08;;;;;;;14.70;12.20;;;;;;;-2.10;100.00;99900.84;88313;276;135967;-72
2023/11/21 00:36:12;;;;;;;18.80;11.10;;;;;;;-2.09;100.00;99900.54;88470;282;138101;-73
2023/11/21 00:38:14;;;;;;;22.70;12.00;;;;;;;-2.03;100.00;99905.33;88408;284;22581;-71
2023/11/21 00:40:19;;;;;;;14.80;11.30;;;;;;;-1.99;100.00;99907.27;88371;282;137351;-73
2023/11/21 00:42:21;;;;;;;21.80;14.10;;;;;;;-1.96;100.00;99907.75;88428;282;22621;-73
2023/11/21 00:44:23;;;;;;;19.80;13.90;;;;;;;-1.94;100.00;99910.91;88371;283;138149;-71
2023/11/21 00:46:28;;;;;;;18.00;12.50;;;;;;;-1.97;100.00;99911.23;88413;279;22533;-73
2023/11/21 00:48:30;;;;;;;20.60;13.30;;;;;;;-2.00;100.00;99914.45;88360;283;135965;-74
2023/11/21 00:50:32;;;;;;;18.50;12.90;;;;;;;-2.04;100.00;99918.94;88492;282;23629;-71
2023/11/21 00:52:35;;;;;;;20.90;13.90;;;;;;;-2.10;100.00;99922.20;88267;284;136248;-73
2023/11/21 00:54:38;;;;;;;20.80;14.00;;;;;;;-2.15;100.00;99923.98;88464;283;23354;-74
2023/11/21 00:56:40;;;;;;;21.70;15.10;;;;;;;-2.20;100.00;99926.22;88372;282;136529;-72
2023/11/21 00:58:43;;;;;;;18.00;12.70;;;;;;;-2.22;100.00;99927.81;88525;282;24018;-77
2023/11/21 01:00:47;;;;;;;19.80;13.30;;;;;;;-2.22;100.00;99926.06;88294;284;137288;-73
2023/11/21 01:02:49;;;;;;;19.60;13.30;;;;;;;-2.24;100.00;99922.76;88568;279;23330;-73
2023/11/21 01:04:51;;;;;;;20.80;12.30;;;;;;;-2.25;100.00;99925.59;88301;282;137311;-74
2023/11/21 01:06:54;;;;;;;18.80;13.30;;;;;;;-2.24;100.00;99926.36;88484;282;22543;-72
2023/11/21 01:08:56;;;;;;;17.50;12.00;;;;;;;-2.19;100.00;99930.38;88365;279;137389;-72
2023/11/21 01:10:58;;;;;;;18.60;12.10;;;;;;;-2.17;100.00;99929.89;88342;284;22679;-73
2023/11/21 01:13:01;;;;;;;25.60;13.30;;;;;;;-2.18;100.00;99929.89;88249;284;136439;-71
2023/11/21 01:15:07;;;;;;;18.60;12.70;;;;;;;-2.17;100.00;99927.23;88463;282;22608;-74
2023/11/21 01:17:09;;;;;;;14.90;10.80;;;;;;;-2.18;100.00;99933.59;88487;282;136320;-73
2023/11/21 01:19:11;;;;;;;19.10;10.90;;;;;;;-2.20;100.00;99929.92;88429;282;22555;-73
2023/11/21 01:21:13;;;;;;;13.80;11.20;;;;;;;-2.24;100.00;99932.45;88322;282;136628;-71
2023/11/21 01:23:15;;;;;;;18.10;13.40;;;;;;;-2.25;100.00;99932.60;88502;282;22537;-74
2023/11/21 01:25:17;;;;;;;20.80;13.00;;;;;;;-2.24;100.00;99934.23;88415;282;137220;-75
2023/11/21 01:27:19;;;;;;;13.90;11.30;;;;;;;-2.18;100.00;99936.41;88459;278;22530;-72
2023/11/21 01:29:21;;;;;;;16.30;10.60;;;;;;;-2.14;100.00;99937.70;88306;284;136863;-74
2023/11/21 01:31:23;;;;;;;19.00;11.30;;;;;;;-2.12;100.00;99936.66;88498;275;22632;-71
2023/11/21 01:33:25;;;;;;;15.40;11.20;;;;;;;-2.10;100.00;99933.02;88392;282;136848;-73
2023/11/21 01:35:27;;;;;;;15.30;11.30;;;;;;;-2.10;100.00;99934.98;88468;279;22543;-71
2023/11/21 01:37:30;;;;;;;18.40;11.20;;;;;;;-2.14;100.00;99933.67;88349;278;136634;-71
2023/11/21 01:39:32;;;;;;;15.10;11.50;;;;;;;-2.17;100.00;99934.58;88560;275;22558;-72
2023/11/21 01:41:35;;;;;;;16.00;11.00;;;;;;;-2.20;100.00;99933.54;88356;282;136397;-70
2023/11/21 01:43:37;;;;;;;15.00;11.10;;;;;;;-2.22;100.00;99931.96;88482;282;22542;-72
2023/11/21 01:45:39;;;;;;;16.80;11.20;;;;;;;-2.27;100.00;99929.57;88390;280;136390;-71
2023/11/21 01:47:44;;;;;;;16.70;11.40;;;;;;;-2.30;100.00;99933.11;88487;275;22999;-72
2023/11/21 01:49:47;;;;;;;;;;;;;;;-2.32;100.00;99944.05;88523;275;136768;-74
2023/11/21 01:51:50;;;;;;;14.70;10.40;;;;;;;-2.30;100.00;99945.61;88605;276;22543;-73
2023/11/21 01:53:53;;;;;;;17.70;11.70;;;;;;;-2.29;100.00;99945.21;88504;275;137214;-72
2023/11/21 01:55:56;;;;;;;13.10;10.50;;;;;;;-2.28;100.00;99951.28;88425;284;22540;-72
2023/11/21 01:58:01;;;;;;;13.90;10.60;;;;;;;-2.29;100.00;99943.27;88435;282;138002;-75
2023/11/21 02:00:15;;;;;;;13.50;10.30;;;;;;;-2.30;100.00;99947.40;88245;276;137574;-70
2023/11/21 02:02:17;;;;;;;12.80;10.20;;;;;;;-2.39;100.00;99945.43;88449;282;22612;-73
2023/11/21 02:04:21;;;;;;;17.50;12.90;;;;;;;-2.46;100.00;99947.36;88385;283;136262;-73
2023/11/21 02:06:24;;;;;;;17.60;12.00;;;;;;;-2.49;100.00;99951.77;88619;274;24033;-75
2023/11/21 02:08:28;;;;;;;;;;;;;;;-2.52;100.00;99951.64;88400;281;136620;-74
2023/11/21 02:10:32;;;;;;;17.30;11.40;;;;;;;-2.57;100.00;99957.77;88506;275;22550;-74
2023/11/21 02:12:35;;;;;;;19.10;12.40;;;;;;;-2.65;100.00;99954.65;88356;281;137246;-73
2023/11/21 02:14:37;;;;;;;19.30;12.40;;;;;;;-2.69;100.00;99954.09;88397;281;24705;-73
2023/11/21 02:16:41;;;;;;;18.60;12.10;;;;;;;-2.69;100.00;99952.36;88381;283;137137;-76
2023/11/21 02:18:49;;;;;;;19.00;11.50;;;;;;;-2.67;100.00;99957.23;88505;276;22706;-73
2023/11/21 02:20:51;;;;;;;19.20;10.80;;;;;;;-2.64;100.00;99961.58;88456;275;137216;-74
2023/11/21 02:22:58;;;;;;;14.60;11.20;;;;;;;-2.62;100.00;99965.21;88444;278;22537;-73
2023/11/21 02:25:01;;;;;;;16.60;11.70;;;;;;;-2.59;100.00;99963.97;88354;276;136963;-72
2023/11/21 02:27:03;;;;;;;17.00;12.20;;;;;;;-2.57;100.00;99960.30;88383;280;24173;-74
2023/11/21 02:29:05;;;;;;;18.10;12.40;;;;;;;-2.57;100.00;99959.48;88376;279;137397;-74
2023/11/21 02:31:07;;;;;;;16.70;11.60;;;;;;;-2.61;100.00;99958.94;88492;274;24037;-72
2023/11/21 02:33:09;;;;;;;18.40;11.80;;;;;;;-2.63;100.00;99958.86;88510;282;137552;-69
2023/11/21 02:35:12;;;;;;;12.70;11.20;;;;;;;-2.65;100.00;99957.31;88582;280;24052;-68
2023/11/21 02:37:14;;;;;;;17.40;11.70;;;;;;;-2.68;100.00;99962.36;88381;282;136640;-72
2023/11/21 02:39:16;;;;;;;14.60;12.00;;;;;;;-2.73;100.00;99962.23;88416;283;24181;-71
2023/11/21 02:41:18;;;;;;;14.20;11.70;;;;;;;-2.81;100.00;99963.31;88493;282;136303;-70
2023/11/21 02:43:20;;;;;;;18.80;10.90;;;;;;;-2.78;100.00;99969.69;88479;282;22545;-69
2023/11/21 02:45:24;;;;;;;14.50;11.00;;;;;;;-2.73;100.00;99970.06;88394;282;137496;-71
2023/11/21 02:47:27;;;;;;;18.00;11.60;;;;;;;-2.72;100.00;99971.70;88460;283;23989;-73
2023/11/21 02:49:29;;;;;;;16.50;11.30;;;;;;;-2.70;100.00;99969.17;88384;275;137007;-71
2023/11/21 02:51:31;;;;;;;19.80;12.90;;;;;;;-2.69;100.00;99972.69;88489;275;22533;-72
2023/11/21 02:53:33;;;;;;;15.80;12.00;;;;;;;-2.68;100.00;99977.00;88319;275;136671;-73
2023/11/21 02:55:36;;;;;;;16.20;13.40;;;;;;;-2.70;100.00;99984.80;88422;276;22779;-73
2023/11/21 02:57:38;;;;;;;19.40;14.50;;;;;;;-2.73;100.00;99992.65;88406;282;136993;-71
2023/11/21 02:59:40;;;;;;;17.40;13.30;;;;;;;-2.76;100.00;99992.85;88288;284;25109;-71
2023/11/21 03:01:42;;;;;;;15.80;12.00;;;;;;;-2.79;100.00;99992.04;88415;274;136359;-74
2023/11/21 03:03:44;;;;;;;19.80;14.20;;;;;;;-2.82;100.00;99992.12;88423;282;22581;-71
2023/11/21 03:05:46;;;;;;;19.40;13.50;;;;;;;-2.88;100.00;99990.98;88363;279;136587;-72
2023/11/21 03:07:48;;;;;;;18.20;13.40;;;;;;;-2.93;100.00;99992.73;88449;275;22540;-73
2023/11/21 03:09:50;;;;;;;18.70;13.30;;;;;;;-2.95;100.00;99992.29;88165;280;137122;-73
2023/11/21 03:11:54;;;;;;;21.40;15.60;;;;;;;-2.99;100.00;99996.39;88478;282;22541;-72
2023/11/21 03:13:55;;;;;;;19.60;12.90;;;;;;;-3.06;100.00;99987.52;88506;276;137012;-71
2023/11/21 03:16:00;;;;;;;18.50;14.00;;;;;;;-3.00;100.00;99995.44;88519;282;25083;-73
2023/11/21 03:18:03;;;;;;;17.90;13.60;;;;;;;-2.98;100.00;99995.45;88276;275;138080;-73
2023/11/21 03:20:06;;;;;;;20.10;13.20;;;;;;;-2.99;100.00;99995.20;88177;276;136614;-74
2023/11/21 03:22:09;;;;;;;24.70;15.20;;;;;;;-3.03;100.00;99984.74;88566;278;22605;-72
2023/11/21 03:24:11;;;;;;;21.20;16.00;;;;;;;-3.08;100.00;99984.38;88438;282;138311;-71
2023/11/21 03:26:13;;;;;;;18.50;14.50;;;;;;;-3.11;100.00;99980.79;88398;276;22552;-73
2023/11/21 03:28:15;;;;;;;20.80;15.20;;;;;;;-3.13;100.00;99979.90;88330;278;136511;-70
2023/11/21 03:30:17;;;;;;;22.00;15.30;;;;;;;-3.16;100.00;99980.58;88536;274;23899;-71
2023/11/21 03:32:19;;;;;;;21.90;15.40;;;;;;;-3.11;100.00;99984.41;88318;282;138279;-69
2023/11/21 03:34:27;;;;;;;20.00;14.10;;;;;;;-3.02;100.00;99987.81;88499;282;26982;-70
2023/11/21 03:36:30;;;;;;;22.00;14.40;;;;;;;-2.95;100.00;99988.66;88474;278;137207;-71
2023/11/21 03:38:31;;;;;;;20.80;15.60;;;;;;;-2.89;100.00;99989.98;88391;283;24018;-71
2023/11/21 03:40:33;;;;;;;20.80;13.70;;;;;;;-2.88;100.00;99995.81;88543;274;136503;-68
2023/11/21 03:42:36;;;;;;;19.00;13.70;;;;;;;-2.92;100.00;99992.98;88508;282;24037;-68
2023/11/21 03:44:37;;;;;;;24.30;15.60;;;;;;;-2.97;100.00;99986.55;88317;276;136738;-71
2023/11/21 03:46:40;;;;;;;20.30;14.50;;;;;;;-3.02;100.00;99993.86;88517;282;25228;-71
2023/11/21 03:48:43;;;;;;;18.60;15.00;;;;;;;-3.06;100.00;99995.76;88454;275;136719;-72
2023/11/21 03:50:45;;;;;;;22.00;15.50;;;;;;;-3.11;100.00;99997.31;88413;276;25332;-72
2023/11/21 03:52:47;;;;;;;19.50;13.40;;;;;;;-3.16;100.00;99995.36;88406;282;136467;-73
2023/11/21 03:54:49;;;;;;;19.90;14.50;;;;;;;-3.16;100.00;99996.41;88532;282;22553;-73
2023/11/21 03:56:52;;;;;;;21.70;15.10;;;;;;;-3.13;100.00;99996.36;88494;282;137221;-69
2023/11/21 03:58:54;;;;;;;19.30;13.90;;;;;;;-3.10;100.00;99997.25;88071;275;576371;-72
2023/11/21 04:00:56;;;;;;;19.40;13.20;;;;;;;-3.11;100.00;100001.63;88432;278;137175;-73
2023/11/21 04:02:58;;;;;;;22.50;14.70;;;;;;;-3.15;100.00;99998.27;88445;282;22536;-73
2023/11/21 04:05:01;;;;;;;21.20;14.50;;;;;;;-3.21;100.00;99999.39;88320;282;136396;-73
2023/11/21 04:07:04;;;;;;;20.40;15.00;;;;;;;-3.27;100.00;100000.01;88630;275;22523;-71
2023/11/21 04:09:06;;;;;;;20.00;15.80;;;;;;;-3.32;100.00;100002.41;88509;282;137974;-70
2023/11/21 04:11:08;;;;;;;21.00;16.60;;;;;;;-3.36;100.00;100003.04;88420;279;25093;-73
2023/11/21 04:13:14;;;;;;;26.70;16.30;;;;;;;-3.40;100.00;100004.90;88311;278;137619;-72
2023/11/21 04:15:17;;;;;;;20.80;14.50;;;;;;;-3.45;100.00;100006.81;88512;275;23531;-73
2023/11/21 04:17:20;;;;;;;21.00;14.30;;;;;;;-3.47;100.00;100013.58;88370;280;137014;-73
2023/11/21 04:19:24;;;;;;;27.50;16.00;;;;;;;-3.47;100.00;100022.55;88430;282;22734;-73
2023/11/21 04:21:26;;;;;;;26.40;16.60;;;;;;;-3.46;100.00;100023.87;88346;282;139823;-72
2023/11/21 04:23:31;;;;;;;23.50;16.60;;;;;;;-3.43;100.00;100033.42;88504;282;22552;-73
2023/11/21 04:25:33;;;;;;;23.60;17.10;;;;;;;-3.42;100.00;100027.40;88445;282;137189;-74
2023/11/21 04:27:35;;;;;;;21.10;15.80;;;;;;;-3.40;100.00;100031.30;88468;282;25115;-70
2023/11/21 04:29:37;;;;;;;26.90;18.40;;;;;;;-3.44;100.00;100031.02;88430;282;136476;-71
2023/11/21 04:31:39;;;;;;;22.80;17.00;;;;;;;-3.47;100.00;100031.61;88422;279;22546;-73
2023/11/21 04:33:41;;;;;;;25.60;17.40;;;;;;;-3.52;100.00;100030.01;88362;282;136471;-75
2023/11/21 04:35:43;;;;;;;27.30;18.70;;;;;;;-3.56;100.00;100032.05;88434;280;26267;-73
2023/11/21 04:37:45;;;;;;;24.80;17.10;;;;;;;-3.60;100.00;100028.52;88251;282;136612;-73
2023/11/21 04:39:47;;;;;;;24.60;17.90;;;;;;;-3.62;100.00;100027.06;88511;282;22534;-71
2023/11/21 04:41:50;;;;;;;22.10;15.70;;;;;;;-3.57;100.00;100027.58;88430;282;138395;-73
2023/11/21 04:43:52;;;;;;;21.60;15.60;;;;;;;-3.47;100.00;100035.26;88648;275;24054;-73
2023/11/21 04:45:56;;;;;;;26.40;16.70;;;;;;;-3.40;100.00;100035.95;88470;282;137272;-72
2023/11/21 04:47:58;;;;;;;23.50;16.40;;;;;;;-3.36;100.00;100036.86;88538;282;22548;-69
2023/11/21 04:50:00;;;;;;;25.90;18.40;;;;;;;-3.31;100.00;100036.25;88373;282;138196;-73
2023/11/21 04:52:03;;;;;;;23.80;18.40;;;;;;;-3.31;100.00;100036.06;88551;274;22526;-72
2023/11/21 04:54:05;;;;;;;23.90;16.90;;;;;;;-3.38;100.00;100037.02;88605;282;22531;-67
2023/11/21 04:56:07;;;;;;;20.10;16.10;;;;;;;-3.40;100.00;100038.44;89671;275;139194;-72
2023/11/21 04:58:11;;;;;;;20.60;16.00;;;;;;;-3.40;100.00;100040.33;90130;275;24368;-73
2023/11/21 05:00:15;;;;;;;24.50;16.00;;;;;;;-3.48;100.00;100032.33;90021;282;136699;-72
2023/11/21 05:02:19;;;;;;;27.70;14.70;;;;;;;-3.46;100.00;100037.61;90017;279;24439;-74
2023/11/21 05:04:36;;;;;;;20.20;14.60;;;;;;;-3.32;100.00;100049.69;89584;276;137303;-74
2023/11/21 05:06:38;;;;;;;24.70;17.50;;;;;;;-3.24;100.00;100048.75;89115;284;22542;-73
2023/11/21 05:08:40;;;;;;;25.30;16.00;;;;;;;-3.28;100.00;100037.41;88348;282;137282;-72
2023/11/21 05:10:42;;;;;;;23.00;13.50;;;;;;;-3.14;100.00;100057.66;88373;278;22527;-71
2023/11/21 05:12:44;;;;;;;18.40;13.50;;;;;;;-3.12;100.00;100062.16;88176;275;136580;-72
2023/11/21 05:14:46;;;;;;;19.40;15.30;;;;;;;-3.10;100.00;100067.48;88402;282;24090;-73
2023/11/21 05:16:51;;;;;;;22.70;14.80;;;;;;;-3.08;100.00;100068.73;88258;275;136651;-71
2023/11/21 05:18:57;;;;;;;20.10;14.70;;;;;;;-3.27;100.00;100029.70;88359;276;22943;-71
2023/11/21 05:20:59;;;;;;;18.60;14.40;;;;;;;-3.03;100.00;100070.80;88277;276;136543;-73
2023/11/21 05:23:02;;;;;;;19.10;13.70;;;;;;;-3.04;100.00;100078.33;88480;274;23865;-72
2023/11/21 05:25:07;;;;;;;22.30;15.10;;;;;;;-3.00;100.00;100088.29;88327;274;137359;-72
2023/11/21 05:27:09;;;;;;;25.70;15.90;;;;;;;-2.96;100.00;100092.17;88321;276;22556;-71
2023/11/21 05:29:13;;;;;;;26.50;17.10;;;;;;;-2.88;100.00;100095.83;88353;275;137215;-67
2023/11/21 05:31:15;;;;;;;23.80;16.30;;;;;;;-2.85;100.00;100092.98;88120;275;22602;-74
2023/11/21 05:33:18;;;;;;;25.40;16.70;;;;;;;-2.87;100.00;100090.69;88194;278;136746;-73
2023/11/21 05:35:21;;;;;;;23.80;16.00;;;;;;;-2.90;100.00;100087.64;88103;281;22617;-73
2023/11/21 05:37:23;;;;;;;24.00;16.50;;;;;;;-2.91;100.00;100089.77;88054;282;136646;-70
2023/11/21 05:39:25;;;;;;;20.40;15.30;;;;;;;-2.91;100.00;100090.83;88241;276;26321;-71
2023/11/21 05:41:28;;;;;;;18.40;13.40;;;;;;;-2.92;100.00;100096.95;88122;276;136640;-71
2023/11/21 05:43:30;;;;;;;21.00;15.80;;;;;;;-2.92;100.00;100104.95;88151;282;25452;-75
2023/11/21 05:45:32;;;;;;;23.30;15.00;;;;;;;-2.94;100.00;100105.44;88052;276;136669;-75
2023/11/21 05:47:45;;;;;;;24.80;17.70;;;;;;;-2.89;100.00;100102.50;88242;275;22537;-75
2023/11/21 05:49:50;;;;;;;24.10;15.40;;;;;;;-2.79;100.00;100105.27;88249;274;137334;-75
2023/11/21 05:51:54;;;;;;;22.50;15.70;;;;;;;-2.71;100.00;100106.60;88363;274;24046;-74
2023/11/21 05:53:56;;;;;;;24.90;15.00;;;;;;;-2.66;100.00;100109.05;88534;282;137591;-74
2023/11/21 05:55:58;;;;;;;19.00;14.80;;;;;;;-2.65;100.00;100109.84;88232;282;23580;-73
2023/11/21 05:58:00;;;;;;;24.40;15.00;;;;;;;-2.65;100.00;100114.90;88207;282;136468;-75
2023/11/21 06:00:41;;;;;;;21.80;15.60;;;;;;;-2.65;100.00;100120.46;88307;279;22914;-77
2023/11/21 06:02:38;;;;;;;20.70;14.80;;;;;;;-2.66;100.00;100120.52;89026;281;22545;-74
2023/11/21 06:04:41;;;;;;;21.20;15.60;;;;;;;-2.68;100.00;100121.53;88847;282;136611;-72
2023/11/21 06:06:44;;;;;;;21.60;14.40;;;;;;;-2.69;100.00;100125.10;88696;282;22549;-76
2023/11/21 06:08:46;;;;;;;25.60;15.10;;;;;;;-2.69;100.00;100128.05;88608;275;136645;-72
2023/11/21 06:10:49;;;;;;;23.20;16.80;;;;;;;-2.65;100.00;100124.80;88451;283;22537;-74
2023/11/21 06:12:52;;;;;;;28.10;17.50;;;;;;;-2.55;100.00;100125.98;88376;275;137411;-78
2023/11/21 06:14:55;;;;;;;21.30;14.80;;;;;;;-2.47;100.00;100124.60;88550;282;24162;-73
2023/11/21 06:16:57;;;;;;;20.70;14.00;;;;;;;-2.42;100.00;100121.23;88252;274;138341;-70
2023/11/21 06:19:01;;;;;;;22.00;15.80;;;;;;;-2.40;100.00;100119.20;88352;274;24052;-72
2023/11/21 06:21:03;;;;;;;23.30;14.00;;;;;;;-2.50;100.00;100102.51;88227;280;136658;-71
2023/11/21 06:23:05;;;;;;;22.60;16.00;;;;;;;-2.42;100.00;100118.85;88941;275;23185;-74
2023/11/21 06:25:09;;;;;;;20.50;15.20;;;;;;;-2.47;100.00;100118.64;88479;284;136901;-73
2023/11/21 06:27:11;;;;;;;24.60;16.40;;;;;;;-2.49;100.00;100118.45;88456;286;23906;-69
2023/11/21 06:29:14;;;;;;;22.20;15.70;;;;;;;-2.50;100.00;100117.69;88260;285;136292;-74
2023/11/21 06:31:17;;;;;;;20.80;15.90;;;;;;;-2.50;100.00;100125.37;88581;277;22552;-70
2023/11/21 06:33:21;;;;;;;22.90;14.10;;;;;;;-2.45;100.00;100121.63;88875;277;136669;-79
2023/11/21 06:35:24;;;;;;;21.20;15.00;;;;;;;-2.33;100.00;100124.98;89341;283;25065;-77
2023/11/21 06:37:30;;;;;;;23.20;14.90;;;;;;;-2.28;100.00;100121.95;88636;280;136668;-73
2023/11/21 06:39:32;;;;;;;22.40;15.50;;;;;;;-2.15;100.00;100133.26;88696;276;22908;-74
2023/11/21 06:41:34;;;;;;;21.70;15.60;;;;;;;-2.14;100.00;100134.55;88833;279;136182;-74
2023/11/21 06:43:37;;;;;;;20.20;16.50;;;;;;;-2.16;100.00;100134.17;89029;278;22561;-73
2023/11/21 06:45:39;;;;;;;22.20;15.40;;;;;;;-2.18;100.00;100136.39;88490;283;136583;-74
2023/11/21 06:47:41;;;;;;;24.40;17.20;;;;;;;-2.18;100.00;100131.90;88805;274;22676;-69
2023/11/21 06:49:43;;;;;;;22.40;15.80;;;;;;;-2.19;100.00;100128.10;88373;275;136345;-71
2023/11/21 06:51:46;;;;;;;37.70;18.80;;;;;;;-2.18;100.00;100134.46;88671;278;24067;-71
2023/11/21 06:53:48;;;;;;;24.20;17.00;;;;;;;-2.17;100.00;100133.38;88156;276;137515;-70
2023/11/21 06:55:50;;;;;;;24.00;17.10;;;;;;;-2.15;100.00;100136.38;88342;275;22776;-69
2023/11/21 06:57:52;;;;;;;23.30;15.20;;;;;;;-2.09;100.00;100137.50;88278;276;136836;-69
2023/11/21 06:59:57;;;;;;;26.80;15.70;;;;;;;-2.00;100.00;100136.30;88682;284;24064;-76
2023/11/21 07:01:59;;;;;;;26.40;16.10;;;;;;;-1.91;100.00;100135.02;88116;284;137096;-79
2023/11/21 07:04:01;;;;;;;22.80;16.10;;;;;;;-1.85;100.00;100137.83;88934;276;23162;-72
2023/11/21 07:06:05;;;;;;;21.90;16.00;;;;;;;-1.85;100.00;100135.69;88293;274;22535;-71
2023/11/21 07:08:07;;;;;;;23.50;17.00;;;;;;;-1.85;100.00;100140.45;88173;280;136807;-70
2023/11/21 07:10:10;;;;;;;24.30;18.20;;;;;;;-1.86;100.00;100141.20;88212;281;23987;-73
2023/11/21 07:12:13;;;;;;;28.60;17.20;;;;;;;-1.88;100.00;100134.90;88310;275;136913;-68
2023/11/21 07:14:16;;;;;;;25.90;19.20;;;;;;;-1.91;100.00;100138.10;88257;275;23005;-78
2023/11/21 07:16:19;;;;;;;25.30;16.70;;;;;;;-1.95;100.00;100138.91;88250;278;138599;-71
2023/11/21 07:18:21;;;;;;;29.80;19.40;;;;;;;-1.96;100.00;100139.68;88438;278;22537;-74
2023/11/21 07:20:23;;;;;;;27.50;17.70;;;;;;;-1.89;100.00;100140.05;89044;275;138155;-70
2023/11/21 07:22:25;;;;;;;29.30;19.40;;;;;;;-1.76;100.00;100136.16;88375;276;25090;-71
2023/11/21 07:24:27;;;;;;;27.40;20.20;;;;;;;-1.74;100.00;100116.13;88287;278;137103;-70
2023/11/21 07:26:30;;;;;;;29.40;20.10;;;;;;;-1.61;100.00;100132.39;88256;276;22547;-71
2023/11/21 07:28:32;;;;;;;31.40;21.60;;;;;;;-1.60;100.00;100134.92;88312;282;138186;-70
2023/11/21 07:30:34;;;;;;;38.10;24.30;;;;;;;-1.62;100.00;100137.88;88505;282;24044;-70
2023/11/21 07:32:39;;;;;;;30.40;21.90;;;;;;;-1.64;100.00;100138.36;88739;282;136288;-71
2023/11/21 07:34:42;;;;;;;31.80;23.50;;;;;;;-1.63;100.00;100143.65;88415;284;22567;-70
2023/11/21 07:36:44;;;;;;;34.10;21.60;;;;;;;-1.60;100.00;100141.02;88166;278;136228;-71
2023/11/21 07:38:48;;;;;;;37.90;23.00;;;;;;;-1.55;100.00;100133.70;88371;275;22537;-74
2023/11/21 07:40:50;;;;;;;33.90;22.00;;;;;;;-1.47;100.00;100136.41;88160;280;137649;-75
2023/11/21 07:42:52;;;;;;;34.30;21.90;;;;;;;-1.34;100.00;100137.00;88802;276;22831;-78
2023/11/21 07:44:54;;;;;;;31.30;21.20;;;;;;;-1.24;100.00;100139.52;88789;275;137079;-78
2023/11/21 07:46:57;;;;;;;35.10;24.20;;;;;;;-1.16;100.00;100139.11;88839;282;23329;-73
2023/11/21 07:48:59;;;;;;;40.00;24.50;;;;;;;-1.14;100.00;100140.69;88656;277;136216;-69
2023/11/21 07:51:05;;;;;;;37.60;26.10;;;;;;;-1.13;100.00;100142.19;88332;282;23833;-72
2023/11/21 07:53:07;;;;;;;35.30;24.60;;;;;;;-1.10;100.00;100144.58;88152;279;136544;-70
2023/11/21 07:55:09;;;;;;;42.40;27.00;;;;;;;-1.07;100.00;100147.17;88354;276;24014;-71
2023/11/21 07:57:13;;;;;;;40.40;27.60;;;;;;;-1.05;100.00;100146.45;88146;278;136290;-75
2023/11/21 08:01:43;;;;;;;47.80;30.80;;;;;;;-0.99;100.00;100161.51;86665;305;603532;-68
2023/11/21 08:03:45;;;;;;;51.20;29.00;;;;;;;-0.98;100.00;100165.12;87854;287;22551;-72
2023/11/21 08:05:48;;;;;;;41.00;25.70;;;;;;;-0.94;100.00;100160.27;87682;294;136281;-72
2023/11/21 08:07:50;;;;;;;43.90;29.00;;;;;;;-0.84;100.00;100161.41;87897;286;22809;-71
2023/11/21 08:09:53;;;;;;;46.20;29.50;;;;;;;-0.73;100.00;100161.77;88168;282;136749;-73
2023/11/21 08:11:54;;;;;;;49.80;30.10;;;;;;;-0.62;100.00;100160.70;88123;277;22546;-66
2023/11/21 08:13:57;;;;;;;51.40;32.10;;;;;;;-0.54;100.00;100160.48;88160;279;136152;-68
2023/11/21 08:16:02;;;;;;;46.80;31.20;;;;;;;-0.54;100.00;100159.45;87848;278;541898;-82
2023/11/21 08:18:07;;;;;;;48.60;32.20;;;;;;;-0.54;100.00;100157.16;88594;282;25952;-77
2023/11/21 08:20:10;;;;;;;53.30;35.10;;;;;;;-0.51;100.00;100156.96;88550;277;136048;-83
2023/11/21 08:22:13;;;;;;;52.80;33.10;;;;;;;-0.53;100.00;100157.99;88739;277;22724;-71
2023/11/21 08:24:15;;;;;;;47.50;28.70;;;;;;;-0.54;100.00;100166.40;88872;276;136824;-68
2023/11/21 08:26:18;;;;;;;41.10;27.70;;;;;;;-0.53;100.00;100170.33;88475;283;22561;-70
2023/11/21 08:28:22;;;;;;;38.40;24.40;;;;;;;-0.49;100.00;100170.52;88747;284;137508;-68
2023/11/21 08:30:24;;;;;;;32.40;20.60;;;;;;;-0.40;100.00;100169.33;88229;281;24028;-66
2023/11/21 08:32:27;;;;;;;22.60;16.50;;;;;;;-0.36;100.00;100174.05;88305;277;136971;-68
2023/11/21 08:34:29;;;;;;;20.30;14.00;;;;;;;-0.45;100.00;100177.55;88614;279;22533;-68
2023/11/21 08:36:31;;;;;;;20.60;13.20;;;;;;;-0.59;100.00;100176.42;88153;281;136099;-69
2023/11/21 08:38:37;;;;;;;17.30;13.60;;;;;;;-0.71;100.00;100174.58;88323;281;22552;-72
2023/11/21 08:40:39;;;;;;;22.10;15.90;;;;;;;-0.81;100.00;100173.23;88497;281;136143;-71
2023/11/21 08:42:41;;;;;;;28.90;18.80;;;;;;;-0.89;100.00;100178.16;88440;284;23805;-65
2023/11/21 08:44:45;;;;;;;29.20;19.60;;;;;;;-1.00;100.00;100163.02;88435;277;136169;-70
2023/11/21 08:46:47;;;;;;;32.00;20.00;;;;;;;-0.90;100.00;100175.64;88743;281;22533;-71
2023/11/21 08:48:52;;;;;;;27.70;18.60;;;;;;;-0.80;100.00;100172.59;88740;277;136813;-72
2023/11/21 08:50:54;;;;;;;25.70;18.10;;;;;;;-0.73;100.00;100166.52;88785;277;22534;-71
2023/11/21 08:52:56;;;;;;;26.70;19.40;;;;;;;-0.71;100.00;100173.01;88360;281;136592;-68
2023/11/21 08:55:02;;;;;;;33.80;21.60;;;;;;;-0.75;100.00;100175.52;88156;283;25199;-73
2023/11/21 08:57:05;;;;;;;30.30;20.50;;;;;;;-0.76;100.00;100174.60;88514;277;137183;-70
2023/11/21 08:59:07;;;;;;;28.90;20.70;;;;;;;-0.76;100.00;100172.84;88628;277;23004;-67
2023/11/21 09:01:10;;;;;;;29.20;20.30;;;;;;;-0.74;100.00;100172.89;88474;281;136082;-70
2023/11/21 09:03:13;;;;;;;32.50;19.50;;;;;;;-0.73;100.00;100172.05;88691;277;22537;-72
2023/11/21 09:05:16;;;;;;;26.40;18.90;;;;;;;-0.71;100.00;100174.86;88455;282;136039;-74
2023/11/21 09:07:21;;;;;;;25.10;17.40;;;;;;;-0.71;100.00;100171.42;88647;281;23274;-70
2023/11/21 09:09:24;;;;;;;27.70;18.10;;;;;;;-0.69;100.00;100172.27;88588;277;136016;-71
2023/11/21 09:11:33;;;;;;;23.00;16.30;;;;;;;-0.62;100.00;100173.98;88755;276;25767;-71
2023/11/21 09:13:36;;;;;;;32.00;19.20;;;;;;;-0.50;100.00;100176.94;88573;277;137731;-71
2023/11/21 09:15:38;;;;;;;23.00;16.30;;;;;;;-0.44;100.00;100182.69;88789;284;22631;-72
2023/11/21 09:17:40;;;;;;;20.20;15.30;;;;;;;-0.41;100.00;100181.40;88610;284;135960;-71
2023/11/21 09:19:49;;;;;;;20.40;16.10;;;;;;;-0.38;100.00;100175.64;88736;285;22547;-70
2023/11/21 09:21:51;;;;;;;22.70;17.90;;;;;;;-0.37;100.00;100170.85;88759;277;136094;-71